CheckWX is a tool to help pilots better visualize weather data.  It is not intended as a substitute for an official pre-flight weather briefing.

11:30:51 UTC

ENGC METAR
Gullfax Platform Airport
Norway
Current

11 mins ago

ENGC 261120Z 18023KT 9999 VCSH FEW010CB SCT020 BKN100 03/02 Q0990 W06/S4
Observed
Feb-26 @ 11:20 UTC
Wind
  • 180° at 23 KTS
Visibility
10,000+ meters
Flight Rules
VFR
Cloud Levels
  • Few at 1,000' AGL
  • Scattered at 2,000' AGL
  • Broken at 10,000' AGL
Temperature
C / 37°F
Dewpoint
C / 36°F
Humidity
93%
Altimeter
29.23" Hg
Pressure
989.92 hPa
Previous

41 mins ago

ENGC 261050Z 19023KT 9999 VCSH SCT015CB BKN020 04/01 Q0990 W06/S4
Observed
Feb-26 @ 10:50 UTC
Wind
  • 190° at 23 KTS
Visibility
10,000+ meters
Flight Rules
MVFR
Cloud Levels
  • Scattered at 1,500' AGL
  • Broken at 2,000' AGL
Temperature
C / 39°F
Dewpoint
C / 34°F
Humidity
81%
Altimeter
29.23" Hg
Pressure
989.92 hPa
Previous

1 hour ago

ENGC 261020Z 19023KT 9999 VCSH SCT012CB SCT018 04/01 Q0990 W06/S4
Observed
Feb-26 @ 10:20 UTC
Wind
  • 190° at 23 KTS
Visibility
10,000+ meters
Flight Rules
VFR
Cloud Levels
  • Scattered at 1,200' AGL
  • Scattered at 1,800' AGL
Temperature
C / 39°F
Dewpoint
C / 34°F
Humidity
81%
Altimeter
29.23" Hg
Pressure
989.92 hPa